createdAt,value
2022-11-28T00:00:19.663Z,101084.56
2022-11-28T00:02:22.007Z,101090.78
2022-11-28T00:04:25.473Z,101077.66
2022-11-28T00:06:28.334Z,101083.34
2022-11-28T00:08:32.228Z,101078.66
2022-11-28T00:10:38.826Z,101076.63
2022-11-28T00:12:40.991Z,101078.63
2022-11-28T00:14:43.268Z,101078.63
2022-11-28T00:16:46.895Z,101078.63
2022-11-28T00:18:53.267Z,101086.66
2022-11-28T00:21:07.463Z,101074.81
2022-11-28T00:23:09.765Z,101076.72
2022-11-28T00:25:11.917Z,101064.88
2022-11-28T00:27:17.081Z,101075.13
2022-11-28T00:29:19.296Z,101072.81
2022-11-28T00:31:24.642Z,101069.28
2022-11-28T00:33:30.656Z,101066.69
2022-11-28T00:35:33.994Z,101069.50
2022-11-28T00:37:36.341Z,101060.25
2022-11-28T00:39:44.757Z,101069.81
2022-11-28T00:41:52.112Z,101081.34
2022-11-28T00:43:58.320Z,101074.50
2022-11-28T00:46:00.540Z,101066.50
2022-11-28T00:48:02.704Z,101079.13
2022-11-28T00:50:05.558Z,101074.66
2022-11-28T00:52:11.036Z,101074.75
2022-11-28T00:54:13.241Z,101065.88
2022-11-28T00:56:18.376Z,101071.06
2022-11-28T00:58:20.480Z,101064.28
2022-11-28T01:00:22.742Z,101072.41
2022-11-28T01:02:26.820Z,101074.00
2022-11-28T01:04:29.096Z,101077.44
2022-11-28T01:06:40.307Z,101083.13
2022-11-28T01:08:42.519Z,101064.19
2022-11-28T01:10:45.884Z,101072.66
2022-11-28T01:12:48.017Z,101074.78
2022-11-28T01:14:50.757Z,101078.13
2022-11-28T01:16:53.184Z,101086.69
2022-11-28T01:18:56.130Z,101079.56
2022-11-28T01:20:58.135Z,101081.25
2022-11-28T01:23:00.300Z,101090.38
2022-11-28T01:25:02.398Z,101085.91
2022-11-28T01:27:04.557Z,101087.69
2022-11-28T01:29:07.610Z,101089.81
2022-11-28T01:31:14.076Z,101093.16
2022-11-28T01:33:16.443Z,101088.47
2022-11-28T01:35:18.642Z,101063.06
2022-11-28T01:37:20.755Z,101092.28
2022-11-28T01:39:22.891Z,101088.34
2022-11-28T01:41:28.237Z,101089.06
2022-11-28T01:43:30.504Z,101091.81
2022-11-28T01:45:33.711Z,101089.25
2022-11-28T01:47:43.924Z,101085.78
2022-11-28T01:49:47.705Z,101082.25
2022-11-28T01:51:55.592Z,101090.81
2022-11-28T01:54:00.242Z,101076.47
2022-11-28T01:56:23.395Z,101078.69
2022-11-28T01:58:26.191Z,101075.53
2022-11-28T02:00:28.640Z,101077.13
2022-11-28T02:02:40.516Z,101081.81
2022-11-28T02:04:42.908Z,101082.69
2022-11-28T02:06:44.910Z,101086.38
2022-11-28T02:08:54.191Z,101073.13
2022-11-28T02:11:14.334Z,101089.81
2022-11-28T02:13:53.403Z,101085.34
2022-11-28T02:16:27.581Z,101077.56
2022-11-28T02:18:50.148Z,101085.34
2022-11-28T02:21:06.315Z,101093.94
2022-11-28T02:23:41.447Z,101093.59
2022-11-28T02:26:07.530Z,101105.97
2022-11-28T02:28:10.614Z,101100.25
2022-11-28T02:30:40.467Z,101100.06
2022-11-28T02:32:54.110Z,101115.97
2022-11-28T02:35:17.879Z,101108.72
2022-11-28T02:37:27.343Z,101111.63
2022-11-28T02:39:38.087Z,101111.84
2022-11-28T02:41:52.856Z,101109.59
2022-11-28T02:44:12.532Z,101109.41
2022-11-28T02:46:23.604Z,101096.59
2022-11-28T02:48:55.355Z,101130.41
2022-11-28T02:51:06.527Z,101110.72
2022-11-28T02:53:17.060Z,101108.16
2022-11-28T02:55:19.349Z,101130.09
2022-11-28T02:57:21.881Z,101107.38
2022-11-28T02:59:44.652Z,101117.88
2022-11-28T03:01:46.660Z,101127.44
2022-11-28T03:04:09.799Z,101139.47
2022-11-28T03:06:59.480Z,101146.69
2022-11-28T03:09:04.295Z,101149.25
2022-11-28T03:11:18.957Z,101121.88
2022-11-28T03:13:39.081Z,101124.75
2022-11-28T03:15:56.678Z,101127.41
2022-11-28T03:18:03.280Z,101124.75
2022-11-28T03:20:14.650Z,101135.00
2022-11-28T03:22:40.962Z,101123.66
2022-11-28T03:24:57.175Z,101123.75
2022-11-28T03:27:18.906Z,101132.44
2022-11-28T03:29:31.321Z,101126.88
2022-11-28T03:31:36.674Z,101144.78
2022-11-28T03:33:45.027Z,101119.94
2022-11-28T03:35:59.033Z,101122.16
2022-11-28T03:38:13.810Z,101133.94
2022-11-28T03:40:22.878Z,101139.09
2022-11-28T03:42:28.741Z,101136.41
2022-11-28T03:44:56.550Z,101124.94
2022-11-28T03:47:02.326Z,101128.53
2022-11-28T03:49:09.588Z,101145.19
2022-11-28T03:51:43.907Z,101147.34
2022-11-28T03:54:28.992Z,101155.09
2022-11-28T03:56:33.880Z,101164.22
2022-11-28T03:59:02.120Z,101101.47
2022-11-28T04:01:25.082Z,101139.81
2022-11-28T04:03:36.099Z,101148.75
2022-11-28T04:05:47.155Z,101146.97
2022-11-28T04:08:10.832Z,101153.66
2022-11-28T04:10:21.891Z,101137.63
2022-11-28T04:12:57.134Z,101149.13
2022-11-28T04:15:12.647Z,101140.78
2022-11-28T04:17:32.702Z,101153.91
2022-11-28T04:19:43.322Z,101146.44
2022-11-28T04:22:00.766Z,101158.31
2022-11-28T04:24:07.739Z,101152.09
2022-11-28T04:26:22.433Z,101157.44
2022-11-28T04:28:30.281Z,101144.31
2022-11-28T04:30:33.327Z,101157.84
2022-11-28T04:32:40.567Z,101155.09
2022-11-28T04:34:45.846Z,101158.09
2022-11-28T04:36:50.096Z,101162.56
2022-11-28T04:38:57.556Z,101156.88
2022-11-28T04:41:15.019Z,101171.91
2022-11-28T04:43:24.716Z,101166.66
2022-11-28T04:45:35.626Z,101167.69
2022-11-28T04:47:38.122Z,101165.91
2022-11-28T04:49:40.505Z,101179.25
2022-11-28T04:51:50.195Z,101168.22
2022-11-28T04:54:02.597Z,101182.13
2022-11-28T04:56:13.791Z,101181.28
2022-11-28T04:58:35.750Z,101169.59
2022-11-28T05:00:39.010Z,101193.03
2022-11-28T05:02:43.618Z,101197.50
2022-11-28T05:04:46.328Z,101160.06
2022-11-28T05:06:48.559Z,101166.56
2022-11-28T05:08:50.860Z,101186.47
2022-11-28T05:10:53.008Z,101131.09
2022-11-28T05:12:55.087Z,101187.13
2022-11-28T05:14:57.175Z,101166.88
2022-11-28T05:16:59.285Z,101139.84
2022-11-28T05:19:01.445Z,101191.00
2022-11-28T05:21:06.824Z,101163.03
2022-11-28T05:23:08.992Z,101200.06
2022-11-28T05:25:11.062Z,101183.59
2022-11-28T05:27:13.107Z,101196.19
2022-11-28T05:29:15.206Z,101207.91
2022-11-28T05:31:20.356Z,101213.47
2022-11-28T05:33:22.480Z,101216.16
2022-11-28T05:35:25.516Z,101219.81
2022-11-28T05:37:27.605Z,101232.84
2022-11-28T05:39:29.824Z,101191.59
2022-11-28T05:41:35.363Z,101196.06
2022-11-28T05:43:37.462Z,101226.72
2022-11-28T05:45:43.171Z,101228.16
2022-11-28T05:47:45.409Z,101227.84
2022-11-28T05:49:47.867Z,101207.69
2022-11-28T05:51:50.145Z,101234.75
2022-11-28T05:53:52.435Z,101258.88
2022-11-28T05:55:54.367Z,101257.50
2022-11-28T05:57:57.231Z,101261.63
2022-11-28T05:59:59.417Z,101253.25
2022-11-28T06:02:01.603Z,101263.50
2022-11-28T06:04:03.917Z,101228.69
2022-11-28T06:06:09.891Z,101261.78
2022-11-28T06:08:12.880Z,101241.38
2022-11-28T06:10:15.460Z,101250.66
2022-11-28T06:12:17.566Z,101244.88
2022-11-28T06:14:20.001Z,101251.59
2022-11-28T06:16:23.325Z,101269.53
2022-11-28T06:18:25.518Z,101257.03
2022-11-28T06:20:27.715Z,101264.97
2022-11-28T06:22:29.978Z,101268.06
2022-11-28T06:24:32.206Z,101250.25
2022-11-28T06:26:34.394Z,101263.53
2022-11-28T06:28:37.207Z,101253.00
2022-11-28T06:30:39.366Z,101254.53
2022-11-28T06:32:41.490Z,101259.38
2022-11-28T06:34:43.646Z,101263.56
2022-11-28T06:36:46.025Z,101259.19
2022-11-28T06:38:48.845Z,101254.28
2022-11-28T06:40:51.085Z,101250.41
2022-11-28T06:42:53.348Z,101249.88
2022-11-28T06:44:55.485Z,101247.63
2022-11-28T06:46:57.670Z,101259.84
2022-11-28T06:49:00.162Z,101266.00
2022-11-28T06:51:07.007Z,101260.56
2022-11-28T06:53:10.335Z,101251.97
2022-11-28T06:55:15.895Z,101237.94
2022-11-28T06:57:18.059Z,101277.28
2022-11-28T06:59:20.601Z,101248.41
2022-11-28T07:01:24.503Z,101263.13
2022-11-28T07:03:26.627Z,101263.25
2022-11-28T07:05:29.025Z,101257.63
2022-11-28T07:07:31.042Z,101264.88
2022-11-28T07:09:33.229Z,101263.19
2022-11-28T07:11:35.551Z,101276.78
2022-11-28T07:13:37.909Z,101262.41
2022-11-28T07:15:48.786Z,101258.75
2022-11-28T07:17:51.021Z,101257.28
2022-11-28T07:19:55.133Z,101265.09
2022-11-28T07:21:57.592Z,101268.00
2022-11-28T07:24:00.342Z,101258.66
2022-11-28T07:26:04.055Z,101273.38
2022-11-28T07:28:06.244Z,101263.34
2022-11-28T07:30:09.724Z,101275.31
2022-11-28T07:32:11.926Z,101260.69
2022-11-28T07:34:14.665Z,101276.44
2022-11-28T07:36:19.754Z,101273.88
2022-11-28T07:38:21.820Z,101280.09
2022-11-28T07:40:24.081Z,101273.09
2022-11-28T07:42:26.292Z,101272.53
2022-11-28T07:44:38.457Z,101266.50
2022-11-28T07:46:40.699Z,101270.56
2022-11-28T07:48:44.134Z,101286.94
2022-11-28T07:50:46.831Z,101287.47
2022-11-28T07:52:51.426Z,101275.88
2022-11-28T07:54:55.435Z,101266.19
2022-11-28T07:57:12.490Z,101272.34
2022-11-28T07:59:15.318Z,101286.94
2022-11-28T08:01:23.366Z,101301.88
2022-11-28T08:03:25.655Z,101285.81
2022-11-28T08:05:27.709Z,101292.31
2022-11-28T08:07:30.239Z,101295.41
2022-11-28T08:09:33.008Z,101277.59
2022-11-28T08:11:35.647Z,101291.19
2022-11-28T08:13:39.062Z,101287.84
2022-11-28T08:15:41.557Z,101302.69
2022-11-28T08:17:43.705Z,101295.75
2022-11-28T08:19:45.782Z,101284.16
2022-11-28T08:21:48.204Z,101290.09
2022-11-28T08:23:52.052Z,101310.47
2022-11-28T08:25:54.016Z,101280.81
2022-11-28T08:27:56.275Z,101299.75
2022-11-28T08:29:58.246Z,101307.91
2022-11-28T08:32:00.674Z,101296.53
2022-11-28T08:34:04.106Z,101312.59
2022-11-28T08:36:10.929Z,101315.47
2022-11-28T08:38:12.898Z,101309.16
2022-11-28T08:40:15.313Z,101275.56
2022-11-28T08:42:17.221Z,101318.41
2022-11-28T08:44:19.434Z,101311.06
2022-11-28T08:46:22.744Z,101296.53
2022-11-28T08:48:25.553Z,101306.50
2022-11-28T08:50:27.770Z,101280.97
2022-11-28T08:52:29.961Z,101303.25
2022-11-28T08:54:32.152Z,101311.97
2022-11-28T08:56:34.996Z,101300.91
2022-11-28T08:58:37.410Z,101321.19
2022-11-28T09:00:39.453Z,101326.94
2022-11-28T09:02:41.947Z,101296.84
2022-11-28T09:04:43.986Z,101301.88
2022-11-28T09:06:46.049Z,101307.38
2022-11-28T09:08:49.251Z,101305.00
2022-11-28T09:10:51.924Z,101324.19
2022-11-28T09:12:54.499Z,101312.72
2022-11-28T09:14:56.606Z,101320.19
2022-11-28T09:16:58.756Z,101312.97
2022-11-28T09:19:01.213Z,101312.41
2022-11-28T09:21:07.660Z,101324.22
2022-11-28T09:23:09.932Z,101310.19
2022-11-28T09:25:12.028Z,101306.50
2022-11-28T09:27:15.273Z,101325.66
2022-11-28T09:29:17.339Z,101329.56
2022-11-28T09:31:20.392Z,101325.09
2022-11-28T09:33:22.615Z,101321.75
2022-11-28T09:35:24.780Z,101320.19
2022-11-28T09:37:28.961Z,101331.56
2022-11-28T09:39:44.074Z,101330.69
2022-11-28T09:42:14.214Z,101342.22
2022-11-28T09:44:28.014Z,101341.03
2022-11-28T09:46:35.390Z,101314.41
2022-11-28T09:48:42.185Z,101324.75
2022-11-28T09:50:46.305Z,101323.28
2022-11-28T09:53:19.046Z,101325.66
2022-11-28T09:55:33.679Z,101324.91
2022-11-28T09:57:47.391Z,101326.44
2022-11-28T09:59:49.619Z,101327.56
2022-11-28T10:01:58.211Z,101318.63
2022-11-28T10:04:16.927Z,101324.06
2022-11-28T10:06:46.837Z,101318.47
2022-11-28T10:09:33.288Z,101320.25
2022-11-28T10:11:50.654Z,101311.47
2022-11-28T10:14:08.764Z,101326.81
2022-11-28T10:16:21.170Z,101319.00
2022-11-28T10:18:39.052Z,101317.03
2022-11-28T10:20:46.756Z,101326.16
2022-11-28T10:22:58.804Z,101323.59
2022-11-28T10:25:09.417Z,101324.25
2022-11-28T10:27:14.661Z,101305.97
2022-11-28T10:29:40.427Z,101314.22
2022-11-28T10:31:45.626Z,101306.13
2022-11-28T10:33:57.925Z,101303.34
2022-11-28T10:36:04.223Z,101303.03
2022-11-28T10:38:12.926Z,101301.38
2022-11-28T10:40:15.297Z,101315.06
2022-11-28T10:42:28.510Z,101317.63
2022-11-28T10:44:41.140Z,101317.09
2022-11-28T10:47:07.444Z,101319.31
2022-11-28T10:49:15.175Z,101318.50
2022-11-28T10:51:19.990Z,101331.22
2022-11-28T10:53:47.031Z,101326.09
2022-11-28T10:55:59.825Z,101312.28
2022-11-28T10:58:13.864Z,101320.78
2022-11-28T11:00:21.311Z,101323.78
2022-11-28T11:02:40.271Z,101312.94
2022-11-28T11:04:43.157Z,101326.69
2022-11-28T11:07:20.986Z,101311.09
2022-11-28T11:09:25.356Z,101320.19
2022-11-28T11:11:33.615Z,101331.06
2022-11-28T11:14:04.770Z,101322.84
2022-11-28T11:16:10.085Z,101329.78
2022-11-28T11:18:27.545Z,101320.72
2022-11-28T11:20:42.556Z,101314.59
2022-11-28T11:22:56.172Z,101331.88
2022-11-28T11:25:15.659Z,101315.59
2022-11-28T11:27:23.129Z,101318.41
2022-11-28T11:29:37.407Z,101304.22
2022-11-28T11:31:44.784Z,101329.41
2022-11-28T11:33:48.944Z,101334.84
2022-11-28T11:35:51.101Z,101316.66
2022-11-28T11:37:53.285Z,101329.47
2022-11-28T11:39:55.483Z,101326.34
2022-11-28T11:42:00.506Z,101347.88
2022-11-28T11:44:14.569Z,101334.50
2022-11-28T11:46:17.320Z,101349.28
2022-11-28T11:48:35.680Z,101351.03
2022-11-28T11:50:39.236Z,101353.75
2022-11-28T11:52:41.852Z,101356.00
2022-11-28T11:54:47.213Z,101345.47
2022-11-28T11:57:00.676Z,101344.34
2022-11-28T11:59:29.792Z,101356.66
2022-11-28T12:01:33.755Z,101350.41
2022-11-28T12:03:58.644Z,101337.47
2022-11-28T12:06:15.424Z,101351.28
2022-11-28T12:08:36.046Z,101373.94
2022-11-28T12:10:46.607Z,101356.53
2022-11-28T12:12:48.712Z,101348.97
2022-11-28T12:14:52.761Z,101351.53
2022-11-28T12:17:32.941Z,101337.97
2022-11-28T12:20:20.582Z,101351.69
2022-11-28T12:23:00.155Z,101335.84
2022-11-28T12:25:15.642Z,101352.84
2022-11-28T12:27:33.352Z,101349.47
2022-11-28T12:29:58.368Z,101347.06
2022-11-28T12:32:06.405Z,101358.31
2022-11-28T12:34:27.368Z,101354.75
2022-11-28T12:36:36.729Z,101366.25
2022-11-28T12:39:01.016Z,101367.69
2022-11-28T12:41:29.091Z,101380.06
2022-11-28T12:44:11.532Z,101385.13
2022-11-28T12:46:35.287Z,101386.16
2022-11-28T12:48:53.587Z,101379.13
2022-11-28T12:51:26.137Z,101392.31
2022-11-28T12:53:59.414Z,101385.66
2022-11-28T12:56:27.803Z,101389.75
2022-11-28T12:59:01.856Z,101383.25
2022-11-28T13:01:41.305Z,101391.97
2022-11-28T13:04:01.914Z,101394.69
2022-11-28T13:06:21.756Z,101384.31
2022-11-28T13:08:48.167Z,101390.94
2022-11-28T13:10:53.904Z,101400.53
2022-11-28T13:13:07.845Z,101402.56
2022-11-28T13:15:24.054Z,101394.13
2022-11-28T13:17:56.601Z,101389.56
2022-11-28T13:20:24.293Z,101390.44
2022-11-28T13:22:41.885Z,101399.16
2022-11-28T13:24:55.802Z,101397.00
2022-11-28T13:27:05.232Z,101400.31
2022-11-28T13:29:19.750Z,101382.53
2022-11-28T13:31:42.756Z,101393.91
2022-11-28T13:33:51.865Z,101390.97
2022-11-28T13:35:54.955Z,101388.16
2022-11-28T13:40:51.667Z,101386.22
2022-11-28T13:43:18.107Z,101390.72
2022-11-28T13:45:49.467Z,101393.91
2022-11-28T13:47:52.030Z,101388.19
2022-11-28T13:50:25.131Z,101408.66
2022-11-28T13:52:29.600Z,101399.44
2022-11-28T13:54:31.644Z,101408.25
2022-11-28T13:56:33.815Z,101405.47
2022-11-28T13:58:53.479Z,101415.06
2022-11-28T14:01:14.676Z,101387.44
2022-11-28T14:03:20.922Z,101414.03
2022-11-28T14:05:36.219Z,101425.53
2022-11-28T14:07:38.528Z,101412.47
2022-11-28T14:09:52.260Z,101421.84
2022-11-28T14:12:23.581Z,101426.28
2022-11-28T14:14:31.449Z,101429.25
2022-11-28T14:16:38.579Z,101426.28
2022-11-28T14:19:15.641Z,101427.44
2022-11-28T14:21:31.881Z,101433.59
2022-11-28T14:23:43.317Z,101431.03
2022-11-28T14:25:49.609Z,101424.13
2022-11-28T14:27:59.594Z,101425.28
2022-11-28T14:30:02.508Z,101415.94
2022-11-28T14:32:29.011Z,101421.94
2022-11-28T14:34:36.737Z,101431.00
2022-11-28T14:36:43.916Z,101428.59
2022-11-28T14:38:46.922Z,101423.84
2022-11-28T14:40:55.127Z,101431.41
2022-11-28T14:43:21.703Z,101440.22
2022-11-28T14:45:33.060Z,101433.06
2022-11-28T14:47:43.040Z,101412.59
2022-11-28T14:49:45.329Z,101414.91
2022-11-28T14:51:47.546Z,101419.75
2022-11-28T14:53:52.182Z,101422.03
2022-11-28T14:56:15.961Z,101418.47
2022-11-28T14:58:19.670Z,101411.94
2022-11-28T15:00:30.531Z,101415.00
2022-11-28T15:02:44.010Z,101418.25
2022-11-28T15:05:17.580Z,101414.28
2022-11-28T15:07:41.386Z,101405.97
2022-11-28T15:09:49.495Z,101412.22
2022-11-28T15:12:08.631Z,101413.41
2022-11-28T15:14:24.676Z,101415.53
2022-11-28T15:16:30.569Z,101411.09
2022-11-28T15:18:33.565Z,101403.66
2022-11-28T15:20:42.716Z,101403.03
2022-11-28T15:22:47.025Z,101401.25
2022-11-28T15:24:52.398Z,101410.94
2022-11-28T15:27:08.448Z,101413.41
2022-11-28T15:29:25.393Z,101415.41
2022-11-28T15:31:30.931Z,101427.69
2022-11-28T15:33:34.071Z,101423.63
2022-11-28T15:35:37.931Z,101436.16
2022-11-28T15:37:45.889Z,101442.41
2022-11-28T15:39:52.044Z,101430.88
2022-11-28T15:41:57.109Z,101435.25
2022-11-28T15:44:02.278Z,101441.13
2022-11-28T15:46:06.053Z,101426.94
2022-11-28T15:48:37.663Z,101430.91
2022-11-28T15:50:50.949Z,101434.59
2022-11-28T15:52:58.784Z,101464.25
2022-11-28T15:55:01.572Z,101443.41
2022-11-28T15:57:06.652Z,101429.59
2022-11-28T15:59:09.786Z,101431.28
2022-11-28T16:01:22.974Z,101444.16
2022-11-28T16:03:31.742Z,101446.22
2022-11-28T16:05:34.309Z,101442.66
2022-11-28T16:07:50.488Z,101435.66
2022-11-28T16:10:00.364Z,101421.47
2022-11-28T16:12:06.279Z,101448.81
2022-11-28T16:14:11.328Z,101424.66
2022-11-28T16:16:24.789Z,101422.19
2022-11-28T16:18:30.472Z,101415.81
2022-11-28T16:20:37.863Z,101420.28
2022-11-28T16:22:43.035Z,101415.69
2022-11-28T16:24:56.394Z,101428.75
2022-11-28T16:27:04.549Z,101430.28
2022-11-28T16:29:09.531Z,101433.84
2022-11-28T16:31:24.259Z,101420.06
2022-11-28T16:33:41.342Z,101426.44
2022-11-28T16:35:44.685Z,101411.59
2022-11-28T16:37:47.100Z,101424.66
2022-11-28T16:39:59.281Z,101424.38
2022-11-28T16:42:20.393Z,101425.66
2022-11-28T16:44:25.318Z,101413.00
2022-11-28T16:46:42.066Z,101445.59
2022-11-28T16:48:57.834Z,101453.78
2022-11-28T16:51:15.659Z,101439.97
2022-11-28T16:53:48.081Z,101440.38
2022-11-28T16:55:50.806Z,101424.66
2022-11-28T16:57:57.111Z,101450.72
2022-11-28T16:59:59.512Z,101442.16
2022-11-28T17:02:01.725Z,101441.13
2022-11-28T17:04:04.849Z,101440.88
2022-11-28T17:06:15.766Z,101433.31
2022-11-28T17:08:17.788Z,101437.94
2022-11-28T17:10:19.929Z,101426.81
2022-11-28T17:12:29.230Z,101437.28
2022-11-28T17:14:31.511Z,101419.41
2022-11-28T17:16:35.980Z,101429.38
2022-11-28T17:18:38.218Z,101430.38
2022-11-28T17:20:40.570Z,101433.59
2022-11-28T17:22:46.602Z,101447.41
2022-11-28T17:24:50.178Z,101428.75
2022-11-28T17:26:54.515Z,101433.31
2022-11-28T17:29:00.529Z,101444.97
2022-11-28T17:31:03.339Z,101437.28
2022-11-28T17:33:05.536Z,101447.16
2022-11-28T17:35:42.248Z,101453.91
2022-11-28T17:37:44.688Z,101451.13
2022-11-28T17:40:05.407Z,101453.03
2022-11-28T17:42:07.490Z,101456.34
2022-11-28T17:44:24.415Z,101456.75
2022-11-28T17:46:26.474Z,101456.75
2022-11-28T17:48:28.553Z,101466.06
2022-11-28T17:50:30.956Z,101451.38
2022-11-28T17:52:33.126Z,101459.53
2022-11-28T17:54:35.891Z,101453.66
2022-11-28T17:56:38.590Z,101454.53
2022-11-28T17:58:41.033Z,101462.88
2022-11-28T18:00:45.960Z,101448.16
2022-11-28T18:02:48.666Z,101455.06
2022-11-28T18:04:50.836Z,101456.47
2022-11-28T18:06:53.527Z,101461.97
2022-11-28T18:08:55.848Z,101466.19
2022-11-28T18:11:09.877Z,101460.94
2022-11-28T18:13:16.453Z,101448.16
2022-11-28T18:15:18.671Z,101443.19
2022-11-28T18:17:22.237Z,101451.47
2022-11-28T18:19:24.458Z,101461.31
2022-11-28T18:21:26.972Z,101441.38
2022-11-28T18:23:29.263Z,101459.53
2022-11-28T18:25:32.047Z,101459.28
2022-11-28T18:27:38.312Z,101466.31
2022-11-28T18:29:42.173Z,101467.06
2022-11-28T18:31:47.946Z,101458.16
2022-11-28T18:34:00.250Z,101457.63
2022-11-28T18:36:19.308Z,101459.03
2022-11-28T18:38:21.715Z,101451.09
2022-11-28T18:40:24.285Z,101458.41
2022-11-28T18:42:32.060Z,101469.50
2022-11-28T18:44:34.437Z,101460.56
2022-11-28T18:46:37.358Z,101456.97
2022-11-28T18:48:42.568Z,101461.69
2022-11-28T18:50:45.471Z,101453.78
2022-11-28T18:52:47.901Z,101455.94
2022-11-28T18:54:50.636Z,101465.66
2022-11-28T18:56:55.509Z,101458.91
2022-11-28T18:58:59.198Z,101455.34
2022-11-28T19:01:17.871Z,101468.50
2022-11-28T19:03:23.623Z,101455.47
2022-11-28T19:05:25.964Z,101462.72
2022-11-28T19:07:28.255Z,101468.22
2022-11-28T19:09:30.918Z,101458.91
2022-11-28T19:11:34.324Z,101464.94
2022-11-28T19:13:37.648Z,101468.63
2022-11-28T19:15:41.482Z,101479.47
2022-11-28T19:17:48.538Z,101475.00
2022-11-28T19:19:51.854Z,101453.91
2022-11-28T19:21:54.244Z,101473.63
2022-11-28T19:23:57.810Z,101464.66
2022-11-28T19:26:04.002Z,101446.63
2022-11-28T19:28:06.446Z,101489.47
2022-11-28T19:30:11.981Z,101466.44
2022-11-28T19:32:14.366Z,101462.09
2022-11-28T19:34:18.436Z,101471.03
2022-11-28T19:36:20.710Z,101476.69
2022-11-28T19:38:23.317Z,101475.66
2022-11-28T19:40:26.662Z,101465.19
2022-11-28T19:42:28.787Z,101457.75
2022-11-28T19:44:31.576Z,101468.22
2022-11-28T19:46:35.878Z,101473.09
2022-11-28T19:48:45.578Z,101486.00
2022-11-28T19:50:50.918Z,101478.59
2022-11-28T19:52:54.405Z,101483.19
2022-11-28T19:54:56.762Z,101481.66
2022-11-28T19:56:59.335Z,101483.97
2022-11-28T19:59:02.952Z,101486.91
2022-11-28T20:01:07.217Z,101492.16
2022-11-28T20:03:11.341Z,101483.06
2022-11-28T20:05:13.885Z,101483.81
2022-11-28T20:07:16.193Z,101483.31
2022-11-28T20:09:18.249Z,101486.91
2022-11-28T20:11:24.513Z,101473.84
2022-11-28T20:13:26.709Z,101482.06
2022-11-28T20:15:28.848Z,101466.06
2022-11-28T20:17:30.826Z,101486.25
2022-11-28T20:19:33.426Z,101495.34
2022-11-28T20:21:35.485Z,101496.25
2022-11-28T20:23:42.508Z,101486.03
2022-11-28T20:25:44.717Z,101481.16
2022-11-28T20:27:46.987Z,101483.84
2022-11-28T20:29:49.146Z,101500.34
2022-11-28T20:31:52.299Z,101491.75
2022-11-28T20:33:55.133Z,101473.34
2022-11-28T20:36:14.175Z,101498.53
2022-11-28T20:38:16.419Z,101506.72
2022-11-28T20:40:18.622Z,101505.94
2022-11-28T20:42:20.831Z,101500.59
2022-11-28T20:44:25.746Z,101507.50
2022-11-28T20:46:30.742Z,101509.03
2022-11-28T20:48:32.930Z,101526.31
2022-11-28T20:50:35.010Z,101524.00
2022-11-28T20:52:37.046Z,101526.56
2022-11-28T20:54:39.205Z,101514.41
2022-11-28T20:57:19.025Z,101519.13
2022-11-28T20:59:07.297Z,101517.59
2022-11-28T21:01:18.578Z,101514.25
2022-11-28T21:03:20.808Z,101513.53
2022-11-28T21:05:22.884Z,101532.03
2022-11-28T21:07:32.716Z,101531.41
2022-11-28T21:09:34.791Z,101513.25
2022-11-28T21:11:56.420Z,101536.91
2022-11-28T21:13:59.458Z,101526.81
2022-11-28T21:16:10.704Z,101515.56
2022-11-28T21:18:16.269Z,101528.34
2022-11-28T21:20:18.410Z,101522.34
2022-11-28T21:22:20.472Z,101527.19
2022-11-28T21:24:22.620Z,101531.91
2022-11-28T21:26:30.107Z,101531.56
2022-11-28T21:28:32.618Z,101545.59
2022-11-28T21:30:43.612Z,101542.94
2022-11-28T21:32:46.778Z,101538.97
2022-11-28T21:34:48.834Z,101541.78
2022-11-28T21:36:51.088Z,101517.34
2022-11-28T21:38:54.953Z,101523.25
2022-11-28T21:40:57.169Z,101522.47
2022-11-28T21:42:59.379Z,101541.53
2022-11-28T21:45:01.958Z,101540.66
2022-11-28T21:47:05.748Z,101524.09
2022-11-28T21:49:07.727Z,101548.19
2022-11-28T21:51:24.880Z,101540.88
2022-11-28T21:53:28.603Z,101516.69
2022-11-28T21:55:30.627Z,101521.44
2022-11-28T21:57:32.889Z,101525.03
2022-11-28T21:59:35.120Z,101527.56
2022-11-28T22:01:37.636Z,101531.78
2022-11-28T22:03:41.716Z,101529.50
2022-11-28T22:05:43.714Z,101527.31
2022-11-28T22:07:46.139Z,101516.72
2022-11-28T22:09:48.409Z,101494.19
2022-11-28T22:11:50.580Z,101525.16
2022-11-28T22:13:53.046Z,101526.94
2022-11-28T22:15:55.419Z,101541.13
2022-11-28T22:17:58.281Z,101508.00
2022-11-28T22:20:00.457Z,101535.88
2022-11-28T22:22:03.204Z,101518.88
2022-11-28T22:24:06.920Z,101537.41
2022-11-28T22:26:10.331Z,101522.47
2022-11-28T22:28:14.860Z,101515.06
2022-11-28T22:30:17.441Z,101486.41
2022-11-28T22:32:19.699Z,101521.69
2022-11-28T22:34:22.707Z,101529.59
2022-11-28T22:36:25.357Z,101527.19
2022-11-28T22:38:28.239Z,101513.66
2022-11-28T22:40:30.936Z,101532.97
2022-11-28T22:42:33.452Z,101535.75
2022-11-28T22:44:35.535Z,101520.81
2022-11-28T22:46:37.859Z,101504.94
2022-11-28T22:48:40.459Z,101525.78
2022-11-28T22:50:43.113Z,101507.63
2022-11-28T22:52:45.484Z,101540.75
2022-11-28T22:54:49.846Z,101515.94
2022-11-28T22:56:55.329Z,101516.44
2022-11-28T22:58:57.956Z,101520.53
2022-11-28T23:01:00.419Z,101529.88
2022-11-28T23:03:03.005Z,101528.47
2022-11-28T23:05:06.101Z,101514.16
2022-11-28T23:07:08.426Z,101535.25
2022-11-28T23:09:13.829Z,101520.53
2022-11-28T23:11:22.037Z,101523.22
2022-11-28T23:13:24.089Z,101504.69
2022-11-28T23:15:26.249Z,101518.50
2022-11-28T23:17:28.532Z,101525.16
2022-11-28T23:19:31.374Z,101517.22
2022-11-28T23:21:37.325Z,101548.69
2022-11-28T23:23:40.213Z,101543.94
2022-11-28T23:25:42.343Z,101543.19
2022-11-28T23:27:44.437Z,101548.31
2022-11-28T23:29:46.786Z,101533.72
2022-11-28T23:31:49.283Z,101535.75
2022-11-28T23:33:52.492Z,101534.22
2022-11-28T23:35:54.662Z,101539.09
2022-11-28T23:37:56.780Z,101528.19
2022-11-28T23:39:58.838Z,101525.25
2022-11-28T23:42:01.024Z,101525.91
2022-11-28T23:44:03.348Z,101527.06
2022-11-28T23:46:07.251Z,101519.75
2022-11-28T23:48:09.823Z,101524.25
2022-11-28T23:50:11.868Z,101531.66
2022-11-28T23:52:13.951Z,101517.06
2022-11-28T23:54:16.104Z,101532.56
2022-11-28T23:56:29.486Z,101527.44
2022-11-28T23:58:31.935Z,101542.31
